sensor_id;sensor_type;location;lat;lon;timestamp;pressure;altitude;pressure_sealevel;temperature;humidity
9855;BME280;4966;48.112;9.282;2023-04-07T00:01:52;94711.22;;;7.31;78.12
9855;BME280;4966;48.112;9.282;2023-04-07T00:04:17;94705.78;;;7.39;77.81
9855;BME280;4966;48.112;9.282;2023-04-07T00:06:43;94709.59;;;7.30;78.78
9855;BME280;4966;48.112;9.282;2023-04-07T00:09:09;94708.31;;;7.27;77.54
9855;BME280;4966;48.112;9.282;2023-04-07T00:11:37;94707.81;;;7.08;79.51
9855;BME280;4966;48.112;9.282;2023-04-07T00:14:03;94704.28;;;6.98;80.33
9855;BME280;4966;48.112;9.282;2023-04-07T00:16:28;94704.78;;;7.00;80.29
9855;BME280;4966;48.112;9.282;2023-04-07T00:18:54;94704.44;;;6.93;80.96
9855;BME280;4966;48.112;9.282;2023-04-07T00:21:19;94695.72;;;7.05;79.89
9855;BME280;4966;48.112;9.282;2023-04-07T00:23:45;94697.19;;;7.11;79.66
9855;BME280;4966;48.112;9.282;2023-04-07T00:26:11;94686.34;;;7.20;79.13
9855;BME280;4966;48.112;9.282;2023-04-07T00:28:37;94683.66;;;7.20;78.67
9855;BME280;4966;48.112;9.282;2023-04-07T00:31:02;94681.59;;;7.17;78.66
9855;BME280;4966;48.112;9.282;2023-04-07T00:33:27;94694.09;;;6.95;80.09
9855;BME280;4966;48.112;9.282;2023-04-07T00:35:53;94679.78;;;6.95;80.48
9855;BME280;4966;48.112;9.282;2023-04-07T00:38:18;94672.81;;;7.02;80.62
9855;BME280;4966;48.112;9.282;2023-04-07T00:40:44;94669.03;;;7.21;79.56
9855;BME280;4966;48.112;9.282;2023-04-07T00:43:09;94663.09;;;7.01;79.44
9855;BME280;4966;48.112;9.282;2023-04-07T00:45:35;94664.06;;;7.14;78.77
9855;BME280;4966;48.112;9.282;2023-04-07T00:48:01;94656.59;;;7.20;78.73
9855;BME280;4966;48.112;9.282;2023-04-07T00:50:26;94651.31;;;6.97;79.10
9855;BME280;4966;48.112;9.282;2023-04-07T00:52:52;94652.56;;;6.91;80.08
9855;BME280;4966;48.112;9.282;2023-04-07T00:55:19;94655.44;;;6.86;80.63
9855;BME280;4966;48.112;9.282;2023-04-07T00:57:44;94647.66;;;6.93;80.71
9855;BME280;4966;48.112;9.282;2023-04-07T01:00:11;94637.81;;;6.97;81.02
9855;BME280;4966;48.112;9.282;2023-04-07T01:02:42;94628.13;;;7.14;80.19
9855;BME280;4966;48.112;9.282;2023-04-07T01:05:45;94636.22;;;7.22;78.97
9855;BME280;4966;48.112;9.282;2023-04-07T01:08:20;94628.72;;;7.11;78.72
9855;BME280;4966;48.112;9.282;2023-04-07T01:10:52;94628.38;;;6.86;80.61
9855;BME280;4966;48.112;9.282;2023-04-07T01:13:30;94626.19;;;6.97;80.58
9855;BME280;4966;48.112;9.282;2023-04-07T01:16:00;94619.31;;;6.73;82.02
9855;BME280;4966;48.112;9.282;2023-04-07T01:18:30;94613.09;;;6.81;81.87
9855;BME280;4966;48.112;9.282;2023-04-07T01:21:02;94607.25;;;6.88;82.03
9855;BME280;4966;48.112;9.282;2023-04-07T01:23:50;94595.47;;;6.93;81.74
9855;BME280;4966;48.112;9.282;2023-04-07T01:26:19;94592.13;;;6.87;81.26
9855;BME280;4966;48.112;9.282;2023-04-07T01:31:43;94598.66;;;6.95;80.74
9855;BME280;4966;48.112;9.282;2023-04-07T01:34:11;94588.28;;;6.79;80.92
9855;BME280;4966;48.112;9.282;2023-04-07T01:36:37;94587.13;;;6.63;81.54
9855;BME280;4966;48.112;9.282;2023-04-07T01:39:04;94594.91;;;6.47;82.89
9855;BME280;4966;48.112;9.282;2023-04-07T01:41:31;94591.28;;;6.52;83.05
9855;BME280;4966;48.112;9.282;2023-04-07T01:43:57;94587.78;;;6.60;82.64
9855;BME280;4966;48.112;9.282;2023-04-07T01:46:25;94596.03;;;6.55;83.46
9855;BME280;4966;48.112;9.282;2023-04-07T01:48:51;94587.63;;;6.65;82.93
9855;BME280;4966;48.112;9.282;2023-04-07T01:51:19;94574.94;;;6.74;82.78
9855;BME280;4966;48.112;9.282;2023-04-07T01:53:46;94577.63;;;6.74;82.34
9855;BME280;4966;48.112;9.282;2023-04-07T01:56:11;94581.28;;;6.70;82.30
9855;BME280;4966;48.112;9.282;2023-04-07T01:58:37;94578.13;;;6.85;81.17
9855;BME280;4966;48.112;9.282;2023-04-07T02:01:02;94577.00;;;6.77;80.09
9855;BME280;4966;48.112;9.282;2023-04-07T02:06:06;94580.31;;;6.57;81.24
9855;BME280;4966;48.112;9.282;2023-04-07T02:08:35;94575.06;;;6.52;80.42
9855;BME280;4966;48.112;9.282;2023-04-07T02:11:00;94581.84;;;6.41;81.19
9855;BME280;4966;48.112;9.282;2023-04-07T02:13:28;94574.69;;;6.36;81.38
9855;BME280;4966;48.112;9.282;2023-04-07T02:15:55;94576.78;;;6.48;81.55
9855;BME280;4966;48.112;9.282;2023-04-07T02:18:22;94576.97;;;6.51;81.69
9855;BME280;4966;48.112;9.282;2023-04-07T02:20:49;94568.38;;;6.58;81.37
9855;BME280;4966;48.112;9.282;2023-04-07T02:23:16;94565.53;;;6.54;81.68
9855;BME280;4966;48.112;9.282;2023-04-07T02:25:41;94571.13;;;6.75;81.31
9855;BME280;4966;48.112;9.282;2023-04-07T02:28:07;94559.78;;;6.56;81.84
9855;BME280;4966;48.112;9.282;2023-04-07T02:30:33;94555.66;;;6.50;82.23
9855;BME280;4966;48.112;9.282;2023-04-07T02:32:59;94558.56;;;6.71;80.87
9855;BME280;4966;48.112;9.282;2023-04-07T02:35:25;94555.34;;;6.60;80.89
9855;BME280;4966;48.112;9.282;2023-04-07T02:37:50;94554.53;;;6.42;81.77
9855;BME280;4966;48.112;9.282;2023-04-07T02:40:16;94557.22;;;6.42;81.68
9855;BME280;4966;48.112;9.282;2023-04-07T02:42:42;94549.78;;;6.56;81.10
9855;BME280;4966;48.112;9.282;2023-04-07T02:45:09;94535.47;;;6.47;81.68
9855;BME280;4966;48.112;9.282;2023-04-07T02:47:35;94541.00;;;6.51;81.65
9855;BME280;4966;48.112;9.282;2023-04-07T02:50:01;94538.94;;;6.39;82.27
9855;BME280;4966;48.112;9.282;2023-04-07T02:52:26;94540.53;;;6.40;82.41
9855;BME280;4966;48.112;9.282;2023-04-07T02:54:52;94537.03;;;6.48;82.07
9855;BME280;4966;48.112;9.282;2023-04-07T02:57:17;94539.44;;;6.50;81.79
9855;BME280;4966;48.112;9.282;2023-04-07T02:59:43;94532.72;;;6.38;82.03
9855;BME280;4966;48.112;9.282;2023-04-07T03:02:08;94531.16;;;6.46;82.18
9855;BME280;4966;48.112;9.282;2023-04-07T03:04:33;94534.34;;;6.39;82.39
9855;BME280;4966;48.112;9.282;2023-04-07T03:06:59;94537.06;;;6.57;80.25
9855;BME280;4966;48.112;9.282;2023-04-07T03:09:24;94525.72;;;6.29;81.00
9855;BME280;4966;48.112;9.282;2023-04-07T03:11:50;94523.03;;;6.29;81.43
9855;BME280;4966;48.112;9.282;2023-04-07T03:14:16;94514.09;;;6.20;82.19
9855;BME280;4966;48.112;9.282;2023-04-07T03:16:41;94516.38;;;6.35;81.30
9855;BME280;4966;48.112;9.282;2023-04-07T03:19:07;94519.69;;;6.32;80.95
9855;BME280;4966;48.112;9.282;2023-04-07T03:21:33;94518.72;;;6.19;81.37
9855;BME280;4966;48.112;9.282;2023-04-07T03:23:58;94509.97;;;6.22;81.54
9855;BME280;4966;48.112;9.282;2023-04-07T03:26:23;94509.88;;;5.96;83.03
9855;BME280;4966;48.112;9.282;2023-04-07T03:28:49;94516.25;;;6.00;83.01
9855;BME280;4966;48.112;9.282;2023-04-07T03:31:14;94512.81;;;6.08;83.68
9855;BME280;4966;48.112;9.282;2023-04-07T03:33:40;94514.28;;;6.23;83.23
9855;BME280;4966;48.112;9.282;2023-04-07T03:36:05;94511.44;;;6.28;82.83
9855;BME280;4966;48.112;9.282;2023-04-07T03:38:31;94497.75;;;6.25;83.12
9855;BME280;4966;48.112;9.282;2023-04-07T03:40:57;94499.66;;;6.24;83.37
9855;BME280;4966;48.112;9.282;2023-04-07T03:43:22;94496.31;;;6.27;82.99
9855;BME280;4966;48.112;9.282;2023-04-07T03:45:47;94500.63;;;6.28;83.29
9855;BME280;4966;48.112;9.282;2023-04-07T03:48:13;94494.91;;;6.30;83.40
9855;BME280;4966;48.112;9.282;2023-04-07T03:50:38;94497.28;;;6.49;82.31
9855;BME280;4966;48.112;9.282;2023-04-07T03:53:04;94484.59;;;6.49;82.41
9855;BME280;4966;48.112;9.282;2023-04-07T03:55:30;94492.03;;;6.44;80.76
9855;BME280;4966;48.112;9.282;2023-04-07T03:57:56;94487.88;;;6.11;82.13
9855;BME280;4966;48.112;9.282;2023-04-07T04:00:22;94492.94;;;6.13;82.49
9855;BME280;4966;48.112;9.282;2023-04-07T04:02:47;94482.81;;;6.18;81.92
9855;BME280;4966;48.112;9.282;2023-04-07T04:05:12;94475.94;;;6.12;81.88
9855;BME280;4966;48.112;9.282;2023-04-07T04:07:38;94479.78;;;6.11;82.49
9855;BME280;4966;48.112;9.282;2023-04-07T04:10:03;94481.66;;;6.02;83.26
9855;BME280;4966;48.112;9.282;2023-04-07T04:12:29;94487.69;;;6.08;82.99
9855;BME280;4966;48.112;9.282;2023-04-07T04:14:55;94474.03;;;6.04;83.52
9855;BME280;4966;48.112;9.282;2023-04-07T04:17:20;94476.47;;;6.23;82.20
9855;BME280;4966;48.112;9.282;2023-04-07T04:19:45;94480.44;;;6.43;81.65
9855;BME280;4966;48.112;9.282;2023-04-07T04:22:11;94475.53;;;6.28;81.66
9855;BME280;4966;48.112;9.282;2023-04-07T04:24:36;94469.94;;;6.24;82.08
9855;BME280;4966;48.112;9.282;2023-04-07T04:27:02;94468.53;;;6.35;81.74
9855;BME280;4966;48.112;9.282;2023-04-07T04:29:27;94472.19;;;6.31;81.83
9855;BME280;4966;48.112;9.282;2023-04-07T04:31:52;94464.41;;;6.47;81.34
9855;BME280;4966;48.112;9.282;2023-04-07T04:34:18;94466.47;;;6.32;80.94
9855;BME280;4966;48.112;9.282;2023-04-07T04:36:43;94465.16;;;6.04;81.77
9855;BME280;4966;48.112;9.282;2023-04-07T04:39:09;94465.16;;;6.12;82.15
9855;BME280;4966;48.112;9.282;2023-04-07T04:41:37;94463.38;;;6.08;82.32
9855;BME280;4966;48.112;9.282;2023-04-07T04:44:02;94470.84;;;6.02;83.13
9855;BME280;4966;48.112;9.282;2023-04-07T04:46:28;94479.63;;;6.16;82.68
9855;BME280;4966;48.112;9.282;2023-04-07T04:48:53;94471.38;;;6.22;82.40
9855;BME280;4966;48.112;9.282;2023-04-07T04:51:19;94474.84;;;6.22;81.47
9855;BME280;4966;48.112;9.282;2023-04-07T04:53:44;94479.66;;;6.25;80.95
9855;BME280;4966;48.112;9.282;2023-04-07T04:56:10;94478.94;;;6.02;81.60
9855;BME280;4966;48.112;9.282;2023-04-07T04:58:36;94467.84;;;6.12;81.43
9855;BME280;4966;48.112;9.282;2023-04-07T05:01:04;94464.34;;;6.12;81.88
9855;BME280;4966;48.112;9.282;2023-04-07T05:03:30;94471.34;;;6.13;81.86
9855;BME280;4966;48.112;9.282;2023-04-07T05:05:55;94468.31;;;6.06;82.44
9855;BME280;4966;48.112;9.282;2023-04-07T05:08:20;94463.28;;;6.30;81.34
9855;BME280;4966;48.112;9.282;2023-04-07T05:10:46;94469.63;;;6.26;80.69
9855;BME280;4966;48.112;9.282;2023-04-07T05:13:11;94458.03;;;6.25;80.66
9855;BME280;4966;48.112;9.282;2023-04-07T05:15:36;94453.44;;;6.26;80.59
9855;BME280;4966;48.112;9.282;2023-04-07T05:18:02;94452.91;;;6.15;81.16
9855;BME280;4966;48.112;9.282;2023-04-07T05:20:27;94452.31;;;6.35;80.97
9855;BME280;4966;48.112;9.282;2023-04-07T05:22:53;94455.16;;;6.22;80.56
9855;BME280;4966;48.112;9.282;2023-04-07T05:25:18;94445.91;;;6.05;81.20
9855;BME280;4966;48.112;9.282;2023-04-07T05:27:43;94451.31;;;5.96;81.92
9855;BME280;4966;48.112;9.282;2023-04-07T05:30:09;94450.84;;;6.12;81.81
9855;BME280;4966;48.112;9.282;2023-04-07T05:32:35;94462.94;;;6.14;82.27
9855;BME280;4966;48.112;9.282;2023-04-07T05:35:01;94464.88;;;6.23;82.50
9855;BME280;4966;48.112;9.282;2023-04-07T05:37:26;94470.59;;;6.30;82.28
9855;BME280;4966;48.112;9.282;2023-04-07T05:39:51;94469.97;;;6.33;82.45
9855;BME280;4966;48.112;9.282;2023-04-07T05:42:17;94471.25;;;6.53;81.91
9855;BME280;4966;48.112;9.282;2023-04-07T05:44:43;94462.50;;;6.65;81.77
9855;BME280;4966;48.112;9.282;2023-04-07T05:47:09;94462.81;;;6.89;81.01
9855;BME280;4966;48.112;9.282;2023-04-07T05:49:35;94461.53;;;6.87;81.47
9855;BME280;4966;48.112;9.282;2023-04-07T05:52:01;94460.41;;;7.05;80.99
9855;BME280;4966;48.112;9.282;2023-04-07T05:54:27;94455.91;;;7.18;80.34
9855;BME280;4966;48.112;9.282;2023-04-07T05:56:53;94462.16;;;7.10;79.26
9855;BME280;4966;48.112;9.282;2023-04-07T05:59:18;94480.78;;;6.94;78.96
9855;BME280;4966;48.112;9.282;2023-04-07T06:01:44;94485.41;;;6.50;81.57
9855;BME280;4966;48.112;9.282;2023-04-07T06:04:09;94488.44;;;6.66;82.27
9855;BME280;4966;48.112;9.282;2023-04-07T06:06:34;94484.28;;;7.12;79.91
9855;BME280;4966;48.112;9.282;2023-04-07T06:09:00;94474.69;;;7.32;79.39
9855;BME280;4966;48.112;9.282;2023-04-07T06:11:25;94485.19;;;7.33;79.57
9855;BME280;4966;48.112;9.282;2023-04-07T06:13:51;94481.44;;;7.64;79.29
9855;BME280;4966;48.112;9.282;2023-04-07T06:16:16;94483.59;;;7.88;78.71
9855;BME280;4966;48.112;9.282;2023-04-07T06:18:42;94471.44;;;8.24;77.72
9855;BME280;4966;48.112;9.282;2023-04-07T06:21:07;94467.75;;;8.28;76.72
9855;BME280;4966;48.112;9.282;2023-04-07T06:23:33;94474.94;;;8.54;73.91
9855;BME280;4966;48.112;9.282;2023-04-07T06:25:58;94478.59;;;8.58;73.23
9855;BME280;4966;48.112;9.282;2023-04-07T06:28:24;94466.88;;;8.66;72.37
9855;BME280;4966;48.112;9.282;2023-04-07T06:30:50;94471.78;;;8.94;71.84
9855;BME280;4966;48.112;9.282;2023-04-07T06:33:15;94466.72;;;9.05;70.21
9855;BME280;4966;48.112;9.282;2023-04-07T06:35:40;94471.03;;;9.06;70.20
9855;BME280;4966;48.112;9.282;2023-04-07T06:38:06;94463.97;;;9.26;70.24
9855;BME280;4966;48.112;9.282;2023-04-07T06:40:32;94463.19;;;9.25;70.57
9855;BME280;4966;48.112;9.282;2023-04-07T06:42:57;94461.78;;;9.19;69.46
9855;BME280;4966;48.112;9.282;2023-04-07T06:45:23;94467.56;;;9.18;69.53
9855;BME280;4966;48.112;9.282;2023-04-07T06:47:48;94464.81;;;9.05;71.06
9855;BME280;4966;48.112;9.282;2023-04-07T06:50:14;94453.03;;;9.34;68.87
9855;BME280;4966;48.112;9.282;2023-04-07T06:52:39;94456.69;;;9.51;67.75
9855;BME280;4966;48.112;9.282;2023-04-07T06:55:05;94459.66;;;9.58;68.87
9855;BME280;4966;48.112;9.282;2023-04-07T06:57:31;94459.94;;;9.32;70.89
9855;BME280;4966;48.112;9.282;2023-04-07T06:59:57;94460.34;;;9.22;72.68
9855;BME280;4966;48.112;9.282;2023-04-07T07:02:22;94463.84;;;9.55;69.17
9855;BME280;4966;48.112;9.282;2023-04-07T07:04:49;94463.97;;;9.84;67.57
9855;BME280;4966;48.112;9.282;2023-04-07T07:07:14;94464.00;;;10.08;65.53
9855;BME280;4966;48.112;9.282;2023-04-07T07:09:40;94458.09;;;10.18;64.32
9855;BME280;4966;48.112;9.282;2023-04-07T07:12:05;94464.78;;;10.46;65.74
9855;BME280;4966;48.112;9.282;2023-04-07T07:14:31;94451.91;;;10.30;64.83
9855;BME280;4966;48.112;9.282;2023-04-07T07:16:56;94457.66;;;10.41;62.02
9855;BME280;4966;48.112;9.282;2023-04-07T07:19:21;94453.94;;;9.96;62.41
9855;BME280;4966;48.112;9.282;2023-04-07T07:21:47;94458.66;;;10.12;60.06
9855;BME280;4966;48.112;9.282;2023-04-07T07:24:12;94458.22;;;10.10;59.33
9855;BME280;4966;48.112;9.282;2023-04-07T07:26:37;94458.78;;;10.03;60.40
9855;BME280;4966;48.112;9.282;2023-04-07T07:29:03;94467.84;;;9.95;60.85
9855;BME280;4966;48.112;9.282;2023-04-07T07:31:28;94455.50;;;10.22;60.42
9855;BME280;4966;48.112;9.282;2023-04-07T07:33:55;94453.91;;;10.21;60.36
9855;BME280;4966;48.112;9.282;2023-04-07T07:36:20;94457.19;;;9.77;63.55
9855;BME280;4966;48.112;9.282;2023-04-07T07:38:45;94448.59;;;10.00;62.84
9855;BME280;4966;48.112;9.282;2023-04-07T07:41:11;94452.81;;;10.34;59.70
9855;BME280;4966;48.112;9.282;2023-04-07T07:43:36;94459.81;;;10.11;61.25
9855;BME280;4966;48.112;9.282;2023-04-07T07:46:02;94454.63;;;10.30;59.44
9855;BME280;4966;48.112;9.282;2023-04-07T07:48:27;94455.72;;;10.54;59.24
9855;BME280;4966;48.112;9.282;2023-04-07T07:50:53;94456.06;;;10.03;61.43
9855;BME280;4966;48.112;9.282;2023-04-07T07:53:20;94458.78;;;10.28;61.79
9855;BME280;4966;48.112;9.282;2023-04-07T07:55:46;94458.13;;;10.31;63.12
9855;BME280;4966;48.112;9.282;2023-04-07T07:58:11;94468.28;;;10.99;59.37
9855;BME280;4966;48.112;9.282;2023-04-07T08:00:37;94462.44;;;11.41;58.27
9855;BME280;4966;48.112;9.282;2023-04-07T08:03:02;94464.28;;;11.37;58.07
9855;BME280;4966;48.112;9.282;2023-04-07T08:05:27;94460.97;;;11.15;57.20
9855;BME280;4966;48.112;9.282;2023-04-07T08:07:53;94457.59;;;11.78;55.31
9855;BME280;4966;48.112;9.282;2023-04-07T08:10:19;94458.16;;;11.56;57.00
9855;BME280;4966;48.112;9.282;2023-04-07T08:12:45;94457.91;;;11.17;57.16
9855;BME280;4966;48.112;9.282;2023-04-07T08:15:10;94464.13;;;10.89;57.15
9855;BME280;4966;48.112;9.282;2023-04-07T08:17:36;94467.53;;;10.86;58.52
9855;BME280;4966;48.112;9.282;2023-04-07T08:20:02;94477.19;;;10.83;59.03
9855;BME280;4966;48.112;9.282;2023-04-07T08:22:28;94465.59;;;10.86;58.55
9855;BME280;4966;48.112;9.282;2023-04-07T08:24:53;94467.03;;;10.96;58.44
9855;BME280;4966;48.112;9.282;2023-04-07T08:27:19;94463.69;;;11.43;55.64
9855;BME280;4966;48.112;9.282;2023-04-07T08:29:50;94462.03;;;11.55;56.09
9855;BME280;4966;48.112;9.282;2023-04-07T08:32:22;94465.31;;;11.76;54.83
9855;BME280;4966;48.112;9.282;2023-04-07T08:34:47;94464.19;;;12.09;55.37
9855;BME280;4966;48.112;9.282;2023-04-07T08:37:12;94456.53;;;12.30;55.42
9855;BME280;4966;48.112;9.282;2023-04-07T08:39:38;94460.31;;;12.26;53.37
9855;BME280;4966;48.112;9.282;2023-04-07T08:42:03;94454.38;;;12.55;52.85
9855;BME280;4966;48.112;9.282;2023-04-07T08:44:29;94454.81;;;12.58;51.29
9855;BME280;4966;48.112;9.282;2023-04-07T08:46:56;94456.88;;;12.80;51.93
9855;BME280;4966;48.112;9.282;2023-04-07T08:49:23;94454.13;;;12.80;51.36
9855;BME280;4966;48.112;9.282;2023-04-07T08:51:52;94451.94;;;12.50;53.40
9855;BME280;4966;48.112;9.282;2023-04-07T08:54:19;94456.88;;;12.80;49.95
9855;BME280;4966;48.112;9.282;2023-04-07T08:56:46;94460.78;;;13.18;50.17
9855;BME280;4966;48.112;9.282;2023-04-07T08:59:14;94453.66;;;13.13;50.31
9855;BME280;4966;48.112;9.282;2023-04-07T09:01:40;94451.06;;;13.82;49.38
9855;BME280;4966;48.112;9.282;2023-04-07T09:04:07;94450.47;;;13.50;48.90
9855;BME280;4966;48.112;9.282;2023-04-07T09:06:33;94449.91;;;13.83;49.38
9855;BME280;4966;48.112;9.282;2023-04-07T09:09:00;94449.47;;;14.28;48.18
9855;BME280;4966;48.112;9.282;2023-04-07T09:11:26;94447.09;;;14.53;47.26
9855;BME280;4966;48.112;9.282;2023-04-07T09:13:52;94447.19;;;14.83;47.33
9855;BME280;4966;48.112;9.282;2023-04-07T09:16:17;94449.03;;;15.05;44.35
9855;BME280;4966;48.112;9.282;2023-04-07T09:18:43;94444.72;;;14.74;45.63
9855;BME280;4966;48.112;9.282;2023-04-07T09:21:08;94443.25;;;14.54;46.11
9855;BME280;4966;48.112;9.282;2023-04-07T09:23:36;94442.69;;;15.31;44.32
9855;BME280;4966;48.112;9.282;2023-04-07T09:26:25;94445.66;;;15.49;43.27
9855;BME280;4966;48.112;9.282;2023-04-07T09:28:58;94431.53;;;15.47;42.55
9855;BME280;4966;48.112;9.282;2023-04-07T09:31:46;94436.41;;;14.97;44.36
9855;BME280;4966;48.112;9.282;2023-04-07T09:34:39;94435.34;;;14.49;46.94
9855;BME280;4966;48.112;9.282;2023-04-07T09:37:06;94442.88;;;14.06;49.20
9855;BME280;4966;48.112;9.282;2023-04-07T09:39:47;94454.09;;;13.35;49.13
9855;BME280;4966;48.112;9.282;2023-04-07T09:42:12;94451.94;;;13.44;50.52
9855;BME280;4966;48.112;9.282;2023-04-07T09:44:39;94449.78;;;13.53;49.15
9855;BME280;4966;48.112;9.282;2023-04-07T09:47:05;94452.91;;;13.75;49.19
9855;BME280;4966;48.112;9.282;2023-04-07T09:49:31;94448.56;;;13.74;46.35
9855;BME280;4966;48.112;9.282;2023-04-07T09:52:02;94450.22;;;14.01;47.22
9855;BME280;4966;48.112;9.282;2023-04-07T09:54:32;94440.06;;;14.78;44.52
9855;BME280;4966;48.112;9.282;2023-04-07T09:56:59;94447.31;;;15.58;42.98
9855;BME280;4966;48.112;9.282;2023-04-07T09:59:27;94438.56;;;15.82;41.58
9855;BME280;4966;48.112;9.282;2023-04-07T10:01:53;94444.28;;;14.72;44.11
9855;BME280;4966;48.112;9.282;2023-04-07T10:04:19;94436.50;;;14.74;42.93
9855;BME280;4966;48.112;9.282;2023-04-07T10:06:45;94438.34;;;14.66;44.42
9855;BME280;4966;48.112;9.282;2023-04-07T10:09:11;94441.34;;;14.58;43.26
9855;BME280;4966;48.112;9.282;2023-04-07T10:11:38;94434.63;;;15.08;43.20
9855;BME280;4966;48.112;9.282;2023-04-07T10:14:05;94440.78;;;15.02;44.26
9855;BME280;4966;48.112;9.282;2023-04-07T10:16:31;94437.53;;;14.93;43.08
9855;BME280;4966;48.112;9.282;2023-04-07T10:18:57;94436.22;;;14.83;43.31
9855;BME280;4966;48.112;9.282;2023-04-07T10:21:22;94441.34;;;14.84;42.42
9855;BME280;4966;48.112;9.282;2023-04-07T10:26:36;94437.06;;;14.87;44.18
9855;BME280;4966;48.112;9.282;2023-04-07T10:29:09;94440.03;;;15.05;43.11
9855;BME280;4966;48.112;9.282;2023-04-07T10:31:36;94444.91;;;15.19;42.83
9855;BME280;4966;48.112;9.282;2023-04-07T10:34:02;94442.63;;;15.24;42.75
9855;BME280;4966;48.112;9.282;2023-04-07T10:36:27;94445.00;;;15.26;43.44
9855;BME280;4966;48.112;9.282;2023-04-07T10:41:35;94442.25;;;15.26;43.94
9855;BME280;4966;48.112;9.282;2023-04-07T10:44:05;94443.53;;;15.02;43.63
9855;BME280;4966;48.112;9.282;2023-04-07T10:49:13;94449.50;;;14.81;44.40
9855;BME280;4966;48.112;9.282;2023-04-07T10:51:39;94439.50;;;14.92;43.12
9855;BME280;4966;48.112;9.282;2023-04-07T10:54:21;94447.03;;;15.02;43.42
9855;BME280;4966;48.112;9.282;2023-04-07T10:59:33;94447.63;;;14.09;46.10
9855;BME280;4966;48.112;9.282;2023-04-07T11:04:40;94448.75;;;14.84;42.97
9855;BME280;4966;48.112;9.282;2023-04-07T11:07:06;94451.06;;;15.08;42.11
9855;BME280;4966;48.112;9.282;2023-04-07T11:09:32;94444.81;;;15.12;40.54
9855;BME280;4966;48.112;9.282;2023-04-07T11:11:57;94451.84;;;15.43;41.36
9855;BME280;4966;48.112;9.282;2023-04-07T11:14:30;94442.91;;;14.85;40.95
9855;BME280;4966;48.112;9.282;2023-04-07T11:16:57;94447.22;;;14.86;40.99
9855;BME280;4966;48.112;9.282;2023-04-07T11:19:23;94448.19;;;14.44;41.49
9855;BME280;4966;48.112;9.282;2023-04-07T11:21:48;94445.75;;;15.23;40.89
9855;BME280;4966;48.112;9.282;2023-04-07T11:24:33;94448.34;;;15.80;40.47
9855;BME280;4966;48.112;9.282;2023-04-07T11:26:59;94446.81;;;16.30;38.19
9855;BME280;4966;48.112;9.282;2023-04-07T11:29:29;94440.97;;;16.32;38.47
9855;BME280;4966;48.112;9.282;2023-04-07T11:31:57;94441.78;;;16.40;39.35
9855;BME280;4966;48.112;9.282;2023-04-07T11:34:28;94442.00;;;16.68;38.79
9855;BME280;4966;48.112;9.282;2023-04-07T11:36:54;94446.34;;;17.46;38.67
9855;BME280;4966;48.112;9.282;2023-04-07T11:39:24;94440.13;;;19.18;35.37
9855;BME280;4966;48.112;9.282;2023-04-07T11:41:52;94436.94;;;19.26;33.79
9855;BME280;4966;48.112;9.282;2023-04-07T11:44:18;94444.41;;;17.61;35.64
9855;BME280;4966;48.112;9.282;2023-04-07T11:46:53;94445.16;;;16.70;38.03
9855;BME280;4966;48.112;9.282;2023-04-07T11:49:19;94444.16;;;16.41;38.22
9855;BME280;4966;48.112;9.282;2023-04-07T11:51:45;94448.47;;;16.97;37.97
9855;BME280;4966;48.112;9.282;2023-04-07T11:54:11;94445.03;;;17.18;37.74
9855;BME280;4966;48.112;9.282;2023-04-07T11:56:44;94446.34;;;17.46;35.87
9855;BME280;4966;48.112;9.282;2023-04-07T11:59:21;94446.88;;;16.37;36.65
9855;BME280;4966;48.112;9.282;2023-04-07T12:01:48;94447.09;;;16.14;37.09
9855;BME280;4966;48.112;9.282;2023-04-07T12:04:14;94448.16;;;16.51;37.13
9855;BME280;4966;48.112;9.282;2023-04-07T12:06:43;94457.16;;;16.00;38.97
9855;BME280;4966;48.112;9.282;2023-04-07T12:09:29;94446.72;;;15.75;37.85
9855;BME280;4966;48.112;9.282;2023-04-07T12:11:55;94444.72;;;15.72;39.74
9855;BME280;4966;48.112;9.282;2023-04-07T12:14:22;94447.94;;;16.19;38.46
9855;BME280;4966;48.112;9.282;2023-04-07T12:16:47;94454.94;;;16.16;37.60
9855;BME280;4966;48.112;9.282;2023-04-07T12:19:13;94451.84;;;15.77;39.45
9855;BME280;4966;48.112;9.282;2023-04-07T12:21:38;94450.22;;;16.13;38.49
9855;BME280;4966;48.112;9.282;2023-04-07T12:24:03;94450.38;;;15.52;38.90
9855;BME280;4966;48.112;9.282;2023-04-07T12:26:29;94454.38;;;15.59;37.87
9855;BME280;4966;48.112;9.282;2023-04-07T12:28:54;94457.19;;;15.66;38.13
9855;BME280;4966;48.112;9.282;2023-04-07T12:31:20;94461.34;;;15.19;39.80
9855;BME280;4966;48.112;9.282;2023-04-07T12:33:46;94462.53;;;14.91;40.96
9855;BME280;4966;48.112;9.282;2023-04-07T12:36:11;94482.03;;;14.36;45.93
9855;BME280;4966;48.112;9.282;2023-04-07T12:38:37;94483.78;;;12.46;48.54
9855;BME280;4966;48.112;9.282;2023-04-07T12:41:02;94488.81;;;11.81;50.46
9855;BME280;4966;48.112;9.282;2023-04-07T12:43:29;94482.69;;;11.27;53.45
9855;BME280;4966;48.112;9.282;2023-04-07T12:45:55;94489.44;;;11.46;52.54
9855;BME280;4966;48.112;9.282;2023-04-07T12:48:21;94494.03;;;11.29;54.39
9855;BME280;4966;48.112;9.282;2023-04-07T12:50:46;94490.97;;;11.03;54.47
9855;BME280;4966;48.112;9.282;2023-04-07T12:53:11;94510.16;;;10.82;54.92
9855;BME280;4966;48.112;9.282;2023-04-07T12:55:37;94505.78;;;10.65;56.04
9855;BME280;4966;48.112;9.282;2023-04-07T12:58:02;94509.28;;;10.78;57.66
9855;BME280;4966;48.112;9.282;2023-04-07T13:00:28;94502.16;;;10.73;59.06
9855;BME280;4966;48.112;9.282;2023-04-07T13:02:54;94504.19;;;10.76;63.18
9855;BME280;4966;48.112;9.282;2023-04-07T13:05:20;94508.94;;;10.79;66.33
9855;BME280;4966;48.112;9.282;2023-04-07T13:07:46;94511.53;;;10.88;67.21
9855;BME280;4966;48.112;9.282;2023-04-07T13:10:11;94507.38;;;10.66;70.59
9855;BME280;4966;48.112;9.282;2023-04-07T13:12:36;94515.19;;;10.55;70.00
9855;BME280;4966;48.112;9.282;2023-04-07T13:15:04;94512.03;;;10.29;69.75
9855;BME280;4966;48.112;9.282;2023-04-07T13:17:29;94521.63;;;9.89;73.30
9855;BME280;4966;48.112;9.282;2023-04-07T13:19:55;94512.59;;;9.64;71.26
9855;BME280;4966;48.112;9.282;2023-04-07T13:22:20;94516.16;;;9.10;74.10
9855;BME280;4966;48.112;9.282;2023-04-07T13:24:46;94509.28;;;8.92;74.11
9855;BME280;4966;48.112;9.282;2023-04-07T13:27:11;94514.75;;;9.04;74.68
9855;BME280;4966;48.112;9.282;2023-04-07T13:29:37;94513.72;;;9.18;72.98
9855;BME280;4966;48.112;9.282;2023-04-07T13:32:06;94508.78;;;9.32;70.82
9855;BME280;4966;48.112;9.282;2023-04-07T13:34:35;94516.00;;;9.61;70.93
9855;BME280;4966;48.112;9.282;2023-04-07T13:37:01;94516.19;;;9.44;71.49
9855;BME280;4966;48.112;9.282;2023-04-07T13:39:28;94520.44;;;9.66;71.55
9855;BME280;4966;48.112;9.282;2023-04-07T13:41:53;94510.72;;;9.77;71.42
9855;BME280;4966;48.112;9.282;2023-04-07T13:44:18;94521.72;;;9.80;70.27